Time;durP1;ratioP1;P1;durP2;ratioP2;P2;SDS_P1;SDS_P2;PMS_P1;PMS_P2;Temp;Humidity;BMP_temperature;BMP_pressure;BME280_temperature;BME280_humidity;BME280_pressure;Samples;Min_cycle;Max_cycle;Signal;HPM_P1;HPM_P2
2023/10/17 00:11:31;;;;;;;9.15;2.67;;;19.10;84.30;;;;;;6276266;22;20103;-78
2023/10/17 00:14:01;;;;;;;6.35;2.42;;;19.00;84.30;;;;;;6276570;22;20329;-79
2023/10/17 00:16:30;;;;;;;10.18;2.70;;;19.00;84.40;;;;;;6276313;22;20413;-78
2023/10/17 00:18:56;;;;;;;6.80;2.90;;;19.00;84.40;;;;;;6276262;22;20062;-78
2023/10/17 00:21:23;;;;;;;6.35;2.65;;;19.00;84.40;;;;;;6275921;22;20007;-77
2023/10/17 00:23:51;;;;;;;7.88;2.88;;;19.00;84.60;;;;;;6276154;22;20011;-78
2023/10/17 00:26:18;;;;;;;6.68;2.92;;;18.90;84.90;;;;;;6276688;22;20004;-77
2023/10/17 00:28:45;;;;;;;9.05;3.00;;;19.00;85.10;;;;;;6276091;22;20011;-78
2023/10/17 00:31:12;;;;;;;5.47;2.78;;;19.00;85.20;;;;;;6276311;22;20008;-78
2023/10/17 00:33:41;;;;;;;6.43;2.80;;;19.00;85.40;;;;;;6276296;22;20007;-78
2023/10/17 00:36:14;;;;;;;6.00;2.95;;;19.00;85.20;;;;;;6276451;22;20004;-78
2023/10/17 00:38:43;;;;;;;5.53;2.83;;;19.00;85.30;;;;;;6276333;22;20007;-78
2023/10/17 00:41:10;;;;;;;6.57;3.13;;;19.00;85.40;;;;;;6276047;22;20354;-78
2023/10/17 00:43:37;;;;;;;6.28;3.10;;;18.90;85.30;;;;;;6272832;22;20384;-78
2023/10/17 00:46:07;;;;;;;6.57;3.13;;;18.90;85.70;;;;;;6276369;22;20012;-78
2023/10/17 00:48:35;;;;;;;5.25;3.22;;;18.90;85.70;;;;;;6276597;22;20401;-79
2023/10/17 00:51:08;;;;;;;8.50;3.20;;;19.00;85.90;;;;;;6276108;22;20078;-77
2023/10/17 00:53:40;;;;;;;6.80;3.15;;;19.00;86.10;;;;;;6276147;22;20027;-77
2023/10/17 00:56:07;;;;;;;6.75;3.28;;;19.00;86.20;;;;;;6248673;22;20055;-75
2023/10/17 00:58:34;;;;;;;7.35;3.00;;;18.90;86.40;;;;;;6276112;22;20011;-77
2023/10/17 01:01:09;;;;;;;5.15;2.92;;;18.80;87.20;;;;;;6276220;22;20003;-77
2023/10/17 01:03:44;;;;;;;6.78;3.38;;;18.90;87.20;;;;;;6275486;22;20012;-79
2023/10/17 01:06:35;;;;;;;6.35;3.35;;;18.80;87.20;;;;;;6275741;22;20077;-78
2023/10/17 01:09:08;;;;;;;5.20;2.78;;;18.80;87.30;;;;;;6275788;22;20000;-79
2023/10/17 01:11:38;;;;;;;6.55;3.40;;;18.80;87.60;;;;;;6276114;22;20088;-78
2023/10/17 01:14:05;;;;;;;6.95;3.50;;;18.70;87.90;;;;;;6275715;22;20063;-78
2023/10/17 01:16:34;;;;;;;7.13;3.28;;;18.70;88.10;;;;;;6275639;22;20000;-78
2023/10/17 01:19:04;;;;;;;8.93;4.00;;;18.70;88.10;;;;;;6276054;22;20426;-79
2023/10/17 01:21:30;;;;;;;5.78;2.63;;;18.70;88.20;;;;;;6275699;22;20006;-78
2023/10/17 01:23:56;;;;;;;6.45;3.13;;;18.70;88.30;;;;;;6274637;22;20394;-77
2023/10/17 01:26:26;;;;;;;5.32;2.83;;;18.60;88.40;;;;;;6276109;22;20007;-77
2023/10/17 01:28:53;;;;;;;7.80;3.60;;;18.70;88.80;;;;;;6276031;22;19999;-79
2023/10/17 01:31:25;;;;;;;6.63;3.13;;;18.70;88.30;;;;;;6275920;22;20031;-77
2023/10/17 01:33:54;;;;;;;6.72;3.50;;;18.70;88.40;;;;;;6275548;22;20004;-78
2023/10/17 01:36:20;;;;;;;6.43;3.33;;;18.70;88.40;;;;;;6276541;22;19995;-76
2023/10/17 01:38:49;;;;;;;9.18;3.78;;;18.70;88.50;;;;;;6248264;22;20503;-78
2023/10/17 01:41:19;;;;;;;8.70;3.17;;;18.60;88.60;;;;;;6280357;22;19996;-80
2023/10/17 01:43:48;;;;;;;7.18;3.50;;;18.60;88.70;;;;;;6275562;22;20046;-79
2023/10/17 01:46:15;;;;;;;6.53;3.40;;;18.60;88.80;;;;;;6275757;22;19995;-78
2023/10/17 01:48:47;;;;;;;6.40;3.28;;;18.60;88.80;;;;;;6275287;22;20444;-77
2023/10/17 01:51:13;;;;;;;10.50;3.65;;;18.60;89.00;;;;;;6275361;22;20027;-76
2023/10/17 01:53:40;;;;;;;8.88;3.65;;;18.60;89.10;;;;;;6276879;22;20054;-79
2023/10/17 01:56:13;;;;;;;6.65;3.60;;;18.60;89.10;;;;;;6276170;22;20008;-78
2023/10/17 01:58:39;;;;;;;7.00;3.78;;;18.60;89.20;;;;;;6275981;22;20325;-76
2023/10/17 02:01:14;;;;;;;7.80;3.90;;;18.60;89.40;;;;;;6276391;22;20482;-78
2023/10/17 02:03:40;;;;;;;8.27;3.90;;;18.40;90.00;;;;;;6275662;22;20034;-77
2023/10/17 02:06:14;;;;;;;9.15;4.25;;;18.40;90.00;;;;;;6275605;22;20098;-76
2023/10/17 02:08:44;;;;;;;8.27;3.92;;;18.40;90.10;;;;;;6276548;22;20089;-77
2023/10/17 02:11:23;;;;;;;7.03;4.00;;;18.40;90.30;;;;;;6248988;22;20057;-78
2023/10/17 02:13:57;;;;;;;8.82;4.13;;;18.30;90.20;;;;;;6276363;22;20362;-78
2023/10/17 02:16:31;;;;;;;8.00;4.18;;;18.30;90.20;;;;;;6275580;22;20038;-77
2023/10/17 02:18:59;;;;;;;9.38;4.22;;;18.30;90.30;;;;;;6275717;22;20007;-78
2023/10/17 02:21:28;;;;;;;7.22;4.40;;;18.30;90.60;;;;;;6276612;22;20380;-78
2023/10/17 02:23:54;;;;;;;10.45;5.93;;;18.40;90.40;;;;;;6275861;22;20007;-80
2023/10/17 02:26:25;;;;;;;12.32;6.88;;;18.30;90.40;;;;;;6276403;22;20075;-78
2023/10/17 02:28:59;;;;;;;11.73;6.15;;;18.30;90.50;;;;;;6276269;22;20004;-78
2023/10/17 02:31:29;;;;;;;10.25;5.90;;;18.30;90.70;;;;;;6276498;22;20023;-78
2023/10/17 02:33:58;;;;;;;9.90;5.85;;;18.30;90.60;;;;;;6275248;22;20010;-78
2023/10/17 02:36:25;;;;;;;9.55;5.60;;;18.30;90.70;;;;;;6275783;22;19999;-78
2023/10/17 02:38:51;;;;;;;8.55;5.35;;;18.30;90.80;;;;;;6276108;22;19996;-78
2023/10/17 02:41:21;;;;;;;9.70;5.65;;;18.20;90.90;;;;;;6275822;22;20014;-79
2023/10/17 02:43:54;;;;;;;10.73;6.60;;;18.20;90.90;;;;;;6248313;22;20079;-78
2023/10/17 02:46:21;;;;;;;11.27;6.60;;;18.20;90.90;;;;;;6274945;22;19996;-79
2023/10/17 02:48:47;;;;;;;10.70;6.68;;;18.10;91.10;;;;;;6275819;22;20110;-79
2023/10/17 02:53:52;;;;;;;9.50;5.75;;;18.10;91.30;;;;;;6276535;22;20109;-77
2023/10/17 02:56:21;;;;;;;9.38;5.78;;;18.00;91.20;;;;;;6275025;22;20003;-78
2023/10/17 02:58:51;;;;;;;9.57;5.75;;;18.00;91.20;;;;;;6275778;22;20008;-79
2023/10/17 03:01:22;;;;;;;9.75;5.07;;;18.00;91.20;;;;;;6276676;22;20004;-78
2023/10/17 03:03:51;;;;;;;9.50;4.95;;;17.90;91.20;;;;;;6276473;22;20026;-77
2023/10/17 03:06:18;;;;;;;8.68;4.20;;;17.90;91.10;;;;;;6275372;22;20000;-79
2023/10/17 03:08:51;;;;;;;8.82;4.13;;;17.90;91.10;;;;;;6275818;22;20016;-79
2023/10/17 03:11:26;;;;;;;8.13;4.25;;;17.90;91.10;;;;;;6247814;22;20081;-79
2023/10/17 03:13:52;;;;;;;10.40;4.07;;;17.90;91.20;;;;;;6275172;22;20018;-79
2023/10/17 03:16:26;;;;;;;9.85;3.92;;;17.90;91.10;;;;;;6274757;22;19996;-78
2023/10/17 03:18:53;;;;;;;10.52;3.97;;;17.90;91.10;;;;;;6274420;22;20003;-79
2023/10/17 03:21:29;;;;;;;8.38;3.83;;;17.90;91.00;;;;;;6275035;22;19996;-79
2023/10/17 03:24:00;;;;;;;6.57;3.42;;;17.90;91.00;;;;;;6274886;22;20008;-79
2023/10/17 03:26:26;;;;;;;9.55;3.75;;;18.00;90.80;;;;;;6274695;22;20003;-77
2023/10/17 03:28:52;;;;;;;8.85;4.03;;;18.00;90.80;;;;;;6275018;22;20004;-77
2023/10/17 03:31:20;;;;;;;10.32;3.83;;;18.00;90.70;;;;;;6274976;22;20171;-79
2023/10/17 03:33:52;;;;;;;10.82;3.63;;;18.10;90.90;;;;;;6274866;22;20004;-78
2023/10/17 03:39:51;;;;;;;6.45;3.00;;;18.00;90.50;;;;;;6274810;22;20441;-78
2023/10/17 03:41:49;;;;;;;10.02;3.20;;;17.90;90.30;;;;;;6253757;22;20018;-79
2023/10/17 03:44:16;;;;;;;8.23;2.97;;;17.80;90.20;;;;;;6274702;22;20012;-78
2023/10/17 03:46:46;;;;;;;9.77;3.30;;;17.80;90.30;;;;;;6275272;22;19996;-78
2023/10/17 03:49:17;;;;;;;7.22;3.50;;;17.70;90.10;;;;;;6276618;22;20016;-78
2023/10/17 03:51:46;;;;;;;11.90;3.67;;;17.70;90.10;;;;;;6276833;22;20053;-79
2023/10/17 03:54:17;;;;;;;10.25;3.17;;;17.70;90.10;;;;;;6250351;22;20373;-78
2023/10/17 03:56:49;;;;;;;7.57;2.80;;;17.60;90.10;;;;;;6277171;22;20008;-78
2023/10/17 04:01:58;;;;;;;6.30;2.72;;;17.50;90.10;;;;;;6278722;22;20384;-78
2023/10/17 04:04:35;;;;;;;6.10;3.00;;;17.50;90.10;;;;;;6277194;22;20020;-78
2023/10/17 04:07:03;;;;;;;9.45;3.45;;;17.50;90.10;;;;;;6277402;22;20087;-78
2023/10/17 04:09:32;;;;;;;7.45;2.65;;;17.50;90.00;;;;;;6277581;22;20023;-79
2023/10/17 04:12:03;;;;;;;8.68;2.72;;;17.50;89.90;;;;;;6279715;22;19994;-77
2023/10/17 04:14:44;;;;;;;7.50;2.35;;;17.50;90.00;;;;;;6278221;22;20069;-77
2023/10/17 04:17:14;;;;;;;7.35;2.80;;;17.50;89.50;;;;;;6277116;22;20006;-79
2023/10/17 04:19:39;;;;;;;7.25;2.70;;;17.50;89.40;;;;;;6277941;22;20008;-79
2023/10/17 04:22:09;;;;;;;7.70;2.60;;;17.50;89.30;;;;;;6277164;22;20022;-78
2023/10/17 04:24:35;;;;;;;6.53;2.60;;;17.60;89.50;;;;;;6278437;22;20089;-78
2023/10/17 04:27:18;;;;;;;8.15;3.10;;;17.60;89.10;;;;;;6277302;22;20426;-79
2023/10/17 04:29:50;;;;;;;11.93;3.50;;;17.60;88.80;;;;;;6250157;22;20038;-79
2023/10/17 04:32:21;;;;;;;10.10;2.88;;;17.70;88.90;;;;;;6277125;22;20341;-78
2023/10/17 04:34:48;;;;;;;8.18;2.78;;;17.70;88.80;;;;;;6276824;22;20016;-78
2023/10/17 04:37:16;;;;;;;6.53;2.30;;;17.70;88.40;;;;;;6276722;22;20031;-80
2023/10/17 04:39:49;;;;;;;7.00;2.70;;;17.60;88.50;;;;;;6278496;22;20370;-79
2023/10/17 04:43:44;;;;;;;8.25;2.70;;;17.60;88.20;;;;;;6277429;22;20004;-79
2023/10/17 04:45:13;;;;;;;6.88;3.03;;;17.60;88.10;;;;;;6257229;22;20018;-79
2023/10/17 04:47:43;;;;;;;8.50;3.55;;;17.60;88.10;;;;;;6276397;22;20004;-80
2023/10/17 04:50:11;;;;;;;6.90;2.80;;;17.70;87.90;;;;;;6276286;22;20027;-77
2023/10/17 04:52:40;;;;;;;5.55;2.20;;;17.70;87.70;;;;;;6276397;22;20011;-80
2023/10/17 04:55:30;;;;;;;6.00;2.75;;;17.80;87.80;;;;;;6276336;22;20058;-79
2023/10/17 04:57:58;;;;;;;7.15;2.90;;;17.70;87.30;;;;;;6276166;22;20000;-78
2023/10/17 05:00:42;;;;;;;8.73;2.90;;;17.70;87.50;;;;;;6276143;22;20030;-76
2023/10/17 05:03:32;;;;;;;;;;;17.80;87.50;;;;;;6277195;22;20015;-77
2023/10/17 05:06:15;;;;;;;8.30;2.95;;;17.70;87.30;;;;;;6275222;22;19899;-79
2023/10/17 06:16:51;;;;;;;11.30;3.15;;;17.60;87.20;;;;;;6275966;22;20042;-75
2023/10/17 09:50:20;;;;;;;8.77;2.92;;;20.40;76.10;;;;;;6273568;22;20142;-88
2023/10/17 09:52:48;;;;;;;7.18;2.60;;;20.40;75.70;;;;;;6251018;23;20032;-87
2023/10/17 09:55:17;;;;;;;10.73;2.80;;;20.50;75.10;;;;;;6254929;23;20334;-89
2023/10/17 09:58:00;;;;;;;9.05;3.20;;;20.50;75.00;;;;;;6255235;23;20068;-85
2023/10/17 10:00:42;;;;;;;8.50;2.80;;;20.50;74.80;;;;;;6249335;23;20066;-82
2023/10/17 10:03:09;;;;;;;9.32;2.97;;;20.60;74.70;;;;;;6244921;23;20004;-80
2023/10/17 10:05:35;;;;;;;8.35;2.92;;;20.60;74.50;;;;;;6244201;23;20011;-82
2023/10/17 10:08:03;;;;;;;6.30;2.75;;;20.70;74.50;;;;;;6244456;23;20000;-80
2023/10/17 10:10:46;;;;;;;8.55;2.85;;;20.80;74.40;;;;;;6244723;23;20000;-81
2023/10/17 10:13:14;;;;;;;6.70;2.95;;;20.90;74.50;;;;;;6244950;23;20114;-82
2023/10/17 10:16:08;;;;;;;7.10;2.80;;;20.90;74.30;;;;;;6217856;23;20040;-82
2023/10/17 10:18:40;;;;;;;9.13;3.30;;;21.00;73.90;;;;;;6244725;23;20446;-83
2023/10/17 10:21:12;;;;;;;10.23;3.45;;;20.90;73.40;;;;;;6244376;23;20000;-82
2023/10/17 10:23:41;;;;;;;6.85;2.80;;;21.00;73.40;;;;;;6244608;23;20454;-83
2023/10/17 10:26:10;;;;;;;8.05;3.55;;;21.10;73.00;;;;;;6244636;23;20004;-81
2023/10/17 10:28:43;;;;;;;7.38;3.30;;;21.20;73.30;;;;;;6245810;23;20052;-83
2023/10/17 10:31:26;;;;;;;6.30;3.13;;;21.20;73.10;;;;;;6255259;23;19996;-85
2023/10/17 10:33:56;;;;;;;6.22;2.53;;;21.30;72.40;;;;;;6250349;23;20007;-81
2023/10/17 10:36:26;;;;;;;7.93;3.00;;;21.30;72.10;;;;;;6248911;23;20500;-80
2023/10/17 10:39:06;;;;;;;6.07;3.20;;;21.40;71.90;;;;;;6246468;23;20008;-81
2023/10/17 10:41:32;;;;;;;9.52;3.63;;;21.50;72.00;;;;;;6218415;23;20051;-85
2023/10/17 10:43:58;;;;;;;8.70;3.33;;;21.60;71.80;;;;;;6248352;23;20016;-90
2023/10/17 10:46:24;;;;;;;7.18;2.63;;;21.70;71.60;;;;;;6247696;23;20029;-83
2023/10/17 10:48:53;;;;;;;7.40;2.90;;;21.80;71.40;;;;;;6244368;23;20438;-81
2023/10/17 10:51:21;;;;;;;8.98;3.05;;;21.90;71.20;;;;;;6258561;22;20020;-73
2023/10/17 10:53:54;;;;;;;6.05;3.30;;;21.90;71.00;;;;;;6274615;22;20453;-77
2023/10/17 10:56:22;;;;;;;5.53;2.72;;;22.00;71.10;;;;;;6275138;22;20003;-80
2023/10/17 10:58:53;;;;;;;6.22;2.53;;;22.10;70.70;;;;;;6275033;22;20069;-75
2023/10/17 11:01:20;;;;;;;4.45;2.20;;;22.10;69.90;;;;;;6274848;22;20073;-78
2023/10/17 11:03:47;;;;;;;6.47;2.38;;;22.20;69.20;;;;;;6274963;22;20103;-79
2023/10/17 11:06:14;;;;;;;9.15;2.47;;;22.30;69.10;;;;;;6275279;22;19995;-73
2023/10/17 11:08:46;;;;;;;8.93;2.95;;;22.40;68.70;;;;;;6274719;22;20008;-74
2023/10/17 11:11:15;;;;;;;8.35;2.67;;;22.50;68.30;;;;;;6275112;22;20004;-76
2023/10/17 11:13:46;;;;;;;5.00;2.30;;;22.50;67.70;;;;;;6248840;22;20350;-72
2023/10/17 11:16:14;;;;;;;6.30;2.03;;;22.60;67.50;;;;;;6274945;22;20055;-74
2023/10/17 11:18:43;;;;;;;4.95;2.15;;;22.60;67.30;;;;;;6247953;22;20027;-72
2023/10/17 11:21:10;;;;;;;5.32;1.98;;;22.70;67.00;;;;;;6274668;22;20054;-75
2023/10/17 11:23:59;;;;;;;3.38;1.88;;;22.80;66.60;;;;;;6274573;22;20012;-77
2023/10/17 11:26:32;;;;;;;5.20;2.13;;;22.90;66.30;;;;;;6275224;22;20287;-76
2023/10/17 11:28:59;;;;;;;7.18;2.17;;;22.90;66.40;;;;;;6274751;22;20483;-74
2023/10/17 11:31:26;;;;;;;5.35;2.08;;;23.00;65.80;;;;;;6274887;22;20039;-75
2023/10/17 11:34:07;;;;;;;7.13;2.08;;;23.10;65.90;;;;;;6248097;22;20004;-74
2023/10/17 11:36:46;;;;;;;9.85;2.50;;;23.10;65.50;;;;;;6274979;22;20000;-76
2023/10/17 11:39:16;;;;;;;4.53;2.13;;;23.20;65.20;;;;;;6275213;22;20010;-75
2023/10/17 11:41:55;;;;;;;4.53;2.03;;;23.30;65.30;;;;;;6275771;22;20031;-75
2023/10/17 11:44:23;;;;;;;7.13;2.50;;;23.30;65.10;;;;;;6247906;22;20087;-75
2023/10/17 11:47:02;;;;;;;8.32;2.50;;;23.40;64.80;;;;;;6274752;22;20023;-74
2023/10/17 11:49:36;;;;;;;5.28;2.00;;;23.40;64.70;;;;;;6274269;22;20004;-73
2023/10/17 11:52:05;;;;;;;8.02;2.33;;;23.50;64.70;;;;;;6274540;22;20368;-73
2023/10/17 11:54:32;;;;;;;6.88;2.33;;;23.50;64.40;;;;;;6274728;22;20003;-73
2023/10/17 11:57:14;;;;;;;9.23;2.97;;;23.50;65.00;;;;;;6274426;22;20015;-76
2023/10/17 11:59:55;;;;;;;5.13;2.30;;;23.60;65.10;;;;;;6274409;22;20007;-77
2023/10/17 12:02:21;;;;;;;5.25;2.33;;;23.60;64.70;;;;;;6273443;22;20440;-74
2023/10/17 12:04:47;;;;;;;6.15;2.17;;;23.70;64.80;;;;;;6274172;22;20012;-75
2023/10/17 12:07:13;;;;;;;6.78;2.40;;;23.80;64.20;;;;;;6274376;22;20004;-75
2023/10/17 12:09:38;;;;;;;4.03;1.70;;;23.80;63.30;;;;;;6276090;22;20054;-74
2023/10/17 12:12:06;;;;;;;3.67;1.67;;;23.80;62.80;;;;;;6276108;22;20000;-73
2023/10/17 12:14:34;;;;;;;4.65;1.85;;;23.90;63.00;;;;;;6275887;22;20008;-74
2023/10/17 12:17:00;;;;;;;4.07;1.90;;;23.90;62.40;;;;;;6276329;22;19999;-75
2023/10/17 12:19:27;;;;;;;3.20;1.90;;;23.90;61.70;;;;;;6276469;22;20038;-76
2023/10/17 12:21:54;;;;;;;4.82;1.80;;;24.00;62.00;;;;;;6275801;22;20793;-66
2023/10/17 12:24:34;;;;;;;5.43;1.75;;;24.00;61.30;;;;;;6274955;22;20492;-72
2023/10/17 12:27:06;;;;;;;3.88;1.65;;;23.90;60.60;;;;;;6275368;22;20010;-72
2023/10/17 12:29:34;;;;;;;4.30;1.88;;;24.00;60.70;;;;;;6275499;22;20150;-73
2023/10/17 12:32:01;;;;;;;2.45;1.13;;;24.10;60.60;;;;;;6275624;22;20079;-71
2023/10/17 12:34:27;;;;;;;3.50;1.50;;;24.10;59.30;;;;;;6275749;22;20007;-71
2023/10/17 12:36:54;;;;;;;2.55;1.38;;;24.10;58.90;;;;;;6275771;22;20157;-72
2023/10/17 12:39:19;;;;;;;3.97;1.50;;;24.20;59.10;;;;;;6275997;22;20003;-72
2023/10/17 12:41:46;;;;;;;4.32;1.50;;;24.30;59.10;;;;;;6275916;22;20006;-72
2023/10/17 12:44:12;;;;;;;3.28;1.60;;;24.40;59.80;;;;;;6276068;22;20023;-72
2023/10/17 12:46:39;;;;;;;5.32;1.58;;;24.40;59.00;;;;;;6248235;22;20010;-73
2023/10/17 12:49:06;;;;;;;4.90;1.83;;;24.50;59.00;;;;;;6274273;22;20014;-75
2023/10/17 12:51:32;;;;;;;9.32;1.92;;;24.60;58.60;;;;;;6275196;22;20338;-74
2023/10/17 12:53:58;;;;;;;4.80;1.98;;;24.60;58.80;;;;;;6275346;22;20008;-75
2023/10/17 12:56:24;;;;;;;5.72;2.20;;;24.60;58.70;;;;;;6275707;22;20015;-74
2023/10/17 12:58:51;;;;;;;9.77;2.38;;;24.60;58.70;;;;;;6275835;22;20007;-76
2023/10/17 13:01:24;;;;;;;5.38;2.00;;;24.60;59.00;;;;;;6275775;22;20455;-75
2023/10/17 13:03:53;;;;;;;5.95;2.13;;;24.60;58.70;;;;;;6248879;22;20331;-76
2023/10/17 13:06:24;;;;;;;8.60;1.83;;;24.70;58.90;;;;;;6275821;22;20079;-75
2023/10/17 13:08:56;;;;;;;6.85;1.83;;;24.80;58.80;;;;;;6275687;22;20512;-75
2023/10/17 13:11:25;;;;;;;4.22;1.80;;;24.80;58.40;;;;;;6275880;22;20015;-73
2023/10/17 13:13:51;;;;;;;6.22;2.30;;;24.80;58.30;;;;;;6275652;22;20007;-73
2023/10/17 13:16:16;;;;;;;7.10;2.35;;;24.90;58.30;;;;;;6275365;22;20000;-74
2023/10/17 13:18:42;;;;;;;5.32;1.88;;;24.90;58.80;;;;;;6275809;22;20004;-75
2023/10/17 13:21:14;;;;;;;4.55;2.08;;;24.90;58.30;;;;;;6275256;22;20039;-73
2023/10/17 13:23:44;;;;;;;4.70;2.10;;;24.90;57.80;;;;;;6275331;22;20334;-75
2023/10/17 13:26:15;;;;;;;8.57;2.20;;;24.80;57.90;;;;;;6274942;22;20090;-74
2023/10/17 13:28:41;;;;;;;4.00;1.88;;;24.80;58.20;;;;;;6275290;22;20004;-74
2023/10/17 13:31:11;;;;;;;5.97;2.00;;;24.90;58.20;;;;;;6275615;22;20421;-74
2023/10/17 13:33:49;;;;;;;5.05;1.70;;;24.90;57.70;;;;;;6275433;22;20004;-73
2023/10/17 13:36:20;;;;;;;3.20;1.50;;;24.90;57.20;;;;;;6275603;22;20011;-74
2023/10/17 13:38:45;;;;;;;4.10;1.73;;;25.00;57.20;;;;;;6275478;22;20003;-73
2023/10/17 13:41:15;;;;;;;4.35;1.48;;;25.10;57.20;;;;;;6275655;22;20114;-73
2023/10/17 13:43:42;;;;;;;5.88;1.77;;;25.10;56.90;;;;;;6275816;22;20020;-73
2023/10/17 13:46:13;;;;;;;4.82;1.52;;;25.10;57.10;;;;;;6275712;22;20074;-74
2023/10/17 13:48:40;;;;;;;6.10;1.42;;;25.10;56.90;;;;;;6276118;22;20010;-75
2023/10/17 13:51:06;;;;;;;4.18;1.58;;;25.10;56.70;;;;;;6275740;22;20022;-75
2023/10/17 13:53:33;;;;;;;4.63;1.95;;;25.10;57.00;;;;;;6276102;22;20000;-75
2023/10/17 13:55:59;;;;;;;4.88;1.33;;;25.10;56.90;;;;;;6275729;22;19999;-72
2023/10/17 13:58:25;;;;;;;6.03;2.08;;;25.20;57.30;;;;;;6275709;22;20065;-73
2023/10/17 14:01:02;;;;;;;3.60;1.90;;;25.20;57.60;;;;;;6275244;22;20000;-73
2023/10/17 14:03:27;;;;;;;6.75;1.80;;;25.10;56.80;;;;;;6275292;22;20000;-75
2023/10/17 14:05:54;;;;;;;10.40;2.40;;;25.20;57.00;;;;;;6275435;22;20003;-74
2023/10/17 14:08:25;;;;;;;6.10;2.08;;;25.20;57.30;;;;;;6275490;22;20030;-73
2023/10/17 14:10:51;;;;;;;6.82;2.15;;;25.20;57.60;;;;;;6275170;22;20019;-73
2023/10/17 14:13:20;;;;;;;6.50;1.90;;;25.20;57.70;;;;;;6275236;22;20010;-74
2023/10/17 14:15:47;;;;;;;8.68;2.08;;;25.20;57.30;;;;;;6275801;22;20007;-73
2023/10/17 14:18:13;;;;;;;10.57;2.55;;;25.30;57.20;;;;;;6275917;22;20011;-74
2023/10/17 14:23:30;;;;;;;5.43;2.08;;;25.30;57.20;;;;;;6275191;22;20419;-73
2023/10/17 14:26:07;;;;;;;7.82;1.60;;;25.30;57.30;;;;;;6275278;22;20008;-73
2023/10/17 14:28:34;;;;;;;4.30;1.70;;;25.30;57.00;;;;;;6275544;22;20429;-74
2023/10/17 14:31:03;;;;;;;4.60;1.85;;;25.30;57.20;;;;;;6247523;22;20011;-74
2023/10/17 14:33:33;;;;;;;4.20;1.80;;;25.30;56.90;;;;;;6274905;22;20315;-74
2023/10/17 14:36:05;;;;;;;3.97;1.90;;;25.30;57.30;;;;;;6275119;22;20000;-74
2023/10/17 14:38:34;;;;;;;4.32;1.90;;;25.30;57.40;;;;;;6275015;22;20003;-74
2023/10/17 14:41:08;;;;;;;7.20;2.40;;;25.30;57.50;;;;;;6275033;22;20367;-74
2023/10/17 14:43:35;;;;;;;4.47;1.80;;;25.20;58.10;;;;;;6247436;22;20438;-74
2023/10/17 14:46:01;;;;;;;9.60;2.70;;;25.20;58.70;;;;;;6274974;22;19999;-74
2023/10/17 14:48:27;;;;;;;6.13;2.15;;;25.20;59.90;;;;;;6275379;22;20000;-75
2023/10/17 14:50:53;;;;;;;6.45;2.40;;;25.10;60.10;;;;;;6247957;22;20098;-74
2023/10/17 14:53:21;;;;;;;6.32;2.38;;;25.10;61.00;;;;;;6275218;22;20008;-75
2023/10/17 14:55:58;;;;;;;7.15;2.58;;;25.10;61.30;;;;;;6274529;22;19996;-74
2023/10/17 14:58:24;;;;;;;7.80;2.63;;;25.00;61.80;;;;;;6274833;22;20000;-75
2023/10/17 15:00:53;;;;;;;7.65;2.75;;;25.00;62.20;;;;;;6275080;22;20331;-75
2023/10/17 15:03:20;;;;;;;12.10;2.85;;;25.00;62.70;;;;;;6275303;22;20364;-76
2023/10/17 15:05:45;;;;;;;5.45;2.30;;;24.90;62.80;;;;;;6275338;22;20421;-75
2023/10/17 15:08:11;;;;;;;8.85;2.50;;;24.80;62.90;;;;;;6275456;22;20042;-75
2023/10/17 15:10:40;;;;;;;5.93;2.42;;;24.80;63.20;;;;;;6275702;22;19999;-75
2023/10/17 15:13:11;;;;;;;4.68;2.20;;;24.70;63.70;;;;;;6275401;22;20010;-77
2023/10/17 15:15:37;;;;;;;8.40;2.30;;;24.60;63.60;;;;;;6275106;22;20415;-75
2023/10/17 15:18:04;;;;;;;8.15;2.15;;;24.50;63.70;;;;;;6274807;22;19996;-75
2023/10/17 15:20:30;;;;;;;6.53;2.17;;;24.50;63.80;;;;;;6274737;22;20394;-76
2023/10/17 15:23:00;;;;;;;11.77;2.40;;;24.40;64.10;;;;;;6274782;22;20438;-74
2023/10/17 15:25:27;;;;;;;6.35;2.20;;;24.30;64.20;;;;;;6247787;22;20022;-77
2023/10/17 15:27:56;;;;;;;10.27;2.35;;;24.30;64.60;;;;;;6275165;22;20000;-75
2023/10/17 15:30:23;;;;;;;7.22;2.40;;;24.20;64.50;;;;;;6274926;22;20000;-74
2023/10/17 15:32:49;;;;;;;11.77;2.53;;;24.20;64.60;;;;;;6274948;22;20298;-68
2023/10/17 15:35:15;;;;;;;11.25;2.92;;;24.10;64.90;;;;;;6275029;22;20003;-75
2023/10/17 15:37:47;;;;;;;6.80;2.67;;;24.10;64.90;;;;;;6274905;22;20010;-75
2023/10/17 15:40:19;;;;;;;16.40;3.22;;;24.10;65.00;;;;;;6247581;22;20035;-75
2023/10/17 15:42:47;;;;;;;6.65;3.25;;;24.00;65.50;;;;;;6273215;22;20049;-77
2023/10/17 15:45:15;;;;;;;7.90;2.88;;;24.00;65.60;;;;;;6275991;22;20047;-78
2023/10/17 15:47:45;;;;;;;7.53;2.78;;;23.90;65.60;;;;;;6275760;22;20000;-77
2023/10/17 15:50:18;;;;;;;8.02;3.00;;;23.90;66.10;;;;;;6275150;22;20061;-77
2023/10/17 15:52:51;;;;;;;10.30;2.55;;;23.90;66.00;;;;;;6277435;22;20016;-84
2023/10/17 15:55:17;;;;;;;13.47;3.63;;;23.80;66.10;;;;;;6277378;22;20093;-83
2023/10/17 15:57:43;;;;;;;12.48;3.30;;;23.80;66.40;;;;;;6277938;22;20000;-79
2023/10/17 16:00:13;;;;;;;7.18;3.05;;;23.70;66.80;;;;;;6276791;22;20409;-79
2023/10/17 16:02:40;;;;;;;7.88;2.88;;;23.60;67.00;;;;;;6249970;22;20008;-74
2023/10/17 16:05:10;;;;;;;7.40;2.97;;;23.60;66.90;;;;;;6262861;22;20016;-75
2023/10/17 16:07:39;;;;;;;5.78;2.50;;;23.50;67.10;;;;;;6286969;22;20030;-75
2023/10/17 16:10:07;;;;;;;9.25;3.95;;;23.50;67.40;;;;;;6303028;22;19998;-77
2023/10/17 16:12:33;;;;;;;7.53;3.33;;;23.40;67.80;;;;;;6276611;22;20426;-79
2023/10/17 16:14:58;;;;;;;8.35;3.53;;;23.40;68.00;;;;;;6277869;22;20030;-77
2023/10/17 16:17:25;;;;;;;10.57;3.35;;;23.40;68.40;;;;;;6276979;22;20003;-75
2023/10/17 16:19:51;;;;;;;8.32;3.60;;;23.40;68.60;;;;;;6276806;22;19999;-78
2023/10/17 16:22:17;;;;;;;9.60;3.88;;;23.40;68.50;;;;;;6276945;22;20006;-78
2023/10/17 16:24:43;;;;;;;9.35;3.85;;;23.30;68.90;;;;;;6249518;22;20107;-78
2023/10/17 16:27:09;;;;;;;11.85;3.75;;;23.20;69.10;;;;;;6277116;22;20158;-80
2023/10/17 16:29:35;;;;;;;7.97;3.78;;;23.20;69.30;;;;;;6276991;22;20000;-77
2023/10/17 16:32:02;;;;;;;7.55;3.58;;;23.20;69.60;;;;;;6276746;22;19999;-77
2023/10/17 16:34:28;;;;;;;7.32;3.40;;;23.20;69.60;;;;;;6276569;22;20335;-76
2023/10/17 16:36:54;;;;;;;10.93;3.67;;;23.10;69.70;;;;;;6276577;22;19999;-77
2023/10/17 16:39:20;;;;;;;9.77;3.20;;;23.10;70.10;;;;;;6276407;22;20000;-77
2023/10/17 16:41:49;;;;;;;7.90;3.60;;;23.00;70.10;;;;;;6277174;22;20365;-79
2023/10/17 16:44:15;;;;;;;8.52;3.38;;;22.90;70.30;;;;;;6276912;22;20016;-77
2023/10/17 16:46:41;;;;;;;8.10;3.10;;;22.90;70.60;;;;;;6276895;22;20027;-77
2023/10/17 16:49:08;;;;;;;11.23;3.55;;;22.90;70.70;;;;;;6276660;22;20311;-73
2023/10/17 16:51:34;;;;;;;6.28;2.63;;;22.90;70.90;;;;;;6276400;22;20283;-75
2023/10/17 16:54:03;;;;;;;5.93;2.70;;;22.80;72.80;;;;;;6276282;22;20378;-82
2023/10/17 16:56:32;;;;;;;7.65;3.03;;;22.80;72.90;;;;;;6276714;22;20030;-75
2023/10/17 16:58:58;;;;;;;10.07;3.55;;;22.80;71.40;;;;;;6275786;22;20000;-74
2023/10/17 17:01:24;;;;;;;6.43;3.25;;;22.80;71.70;;;;;;6276812;22;20007;-73
2023/10/17 17:03:49;;;;;;;7.90;3.92;;;22.80;73.10;;;;;;6276693;22;20053;-74
2023/10/17 17:06:15;;;;;;;7.82;3.60;;;22.80;71.50;;;;;;6249061;22;20079;-74
2023/10/17 17:08:41;;;;;;;6.68;3.25;;;22.80;73.90;;;;;;6276366;22;20433;-77
2023/10/17 17:11:07;;;;;;;9.63;4.05;;;22.70;71.80;;;;;;6276441;22;20421;-78
2023/10/17 17:13:34;;;;;;;8.10;3.13;;;22.70;71.90;;;;;;6276269;22;20045;-75
2023/10/17 17:16:01;;;;;;;14.60;7.50;;;22.70;73.50;;;;;;6276550;22;20000;-80
2023/10/17 17:18:27;;;;;;;10.40;6.07;;;22.70;72.30;;;;;;6276396;22;20003;-77
2023/10/17 17:20:53;;;;;;;8.32;3.83;;;22.70;73.70;;;;;;6276089;22;20004;-76
2023/10/17 17:23:21;;;;;;;10.15;3.85;;;22.60;72.50;;;;;;6276114;22;20035;-79
2023/10/17 17:25:47;;;;;;;8.52;4.20;;;22.60;73.70;;;;;;6276382;22;20008;-76
2023/10/17 17:28:14;;;;;;;9.05;3.97;;;22.60;72.80;;;;;;6276439;22;20000;-78
2023/10/17 17:30:41;;;;;;;8.38;4.32;;;22.50;73.70;;;;;;6276481;22;20083;-77
2023/10/17 17:33:08;;;;;;;11.63;4.50;;;22.50;72.80;;;;;;6277164;22;20004;-75
2023/10/17 17:35:34;;;;;;;11.48;4.90;;;22.50;73.80;;;;;;6277114;22;20018;-80
2023/10/17 17:38:00;;;;;;;10.38;4.65;;;22.50;73.30;;;;;;6275723;22;20003;-79
2023/10/17 17:40:25;;;;;;;18.55;5.00;;;22.50;74.10;;;;;;6275684;22;20099;-77
2023/10/17 17:42:51;;;;;;;12.15;4.60;;;22.50;73.60;;;;;;6276133;22;20000;-75
2023/10/17 17:45:17;;;;;;;11.60;4.07;;;22.50;74.60;;;;;;6275729;22;20077;-76
2023/10/17 17:47:43;;;;;;;9.88;3.85;;;22.50;73.60;;;;;;6274867;22;20008;-77
2023/10/17 17:50:14;;;;;;;11.57;4.63;;;22.50;73.50;;;;;;6274717;22;20026;-78
2023/10/17 17:52:40;;;;;;;12.10;6.05;;;22.40;74.30;;;;;;6276116;22;20073;-77
2023/10/17 17:55:10;;;;;;;11.13;5.38;;;22.40;74.20;;;;;;6248778;22;20008;-79
2023/10/17 17:57:38;;;;;;;14.38;6.43;;;22.40;74.50;;;;;;6276310;22;20011;-75